sensor_id;sensor_type;location;lat;lon;timestamp;temperature;humidity
55365;DHT22;41245;45.384;20.390;2024-01-15T00:02:10;102.90;6476.80
55365;DHT22;41245;45.384;20.390;2024-01-15T00:04:39;102.90;6476.80
55365;DHT22;41245;45.384;20.390;2024-01-15T00:07:06;102.90;6476.80
55365;DHT22;41245;45.384;20.390;2024-01-15T00:09:32;102.90;6476.80
55365;DHT22;41245;45.384;20.390;2024-01-15T00:12:00;102.90;6476.80
55365;DHT22;41245;45.384;20.390;2024-01-15T00:14:26;102.90;6476.80
55365;DHT22;41245;45.384;20.390;2024-01-15T00:16:52;103.00;6476.80
55365;DHT22;41245;45.384;20.390;2024-01-15T00:19:20;102.90;6476.80
55365;DHT22;41245;45.384;20.390;2024-01-15T00:21:46;102.90;6476.80
55365;DHT22;41245;45.384;20.390;2024-01-15T00:24:12;102.90;6476.80
55365;DHT22;41245;45.384;20.390;2024-01-15T00:26:38;103.00;6476.80
55365;DHT22;41245;45.384;20.390;2024-01-15T00:29:04;103.00;6476.80
55365;DHT22;41245;45.384;20.390;2024-01-15T00:31:29;103.00;6476.80
55365;DHT22;41245;45.384;20.390;2024-01-15T00:33:56;103.00;6476.80
55365;DHT22;41245;45.384;20.390;2024-01-15T00:36:23;102.90;6476.80
55365;DHT22;41245;45.384;20.390;2024-01-15T00:38:48;103.00;6476.80
55365;DHT22;41245;45.384;20.390;2024-01-15T00:41:14;102.90;6476.80
55365;DHT22;41245;45.384;20.390;2024-01-15T00:43:40;102.90;6476.80
55365;DHT22;41245;45.384;20.390;2024-01-15T00:46:06;102.80;6476.80
55365;DHT22;41245;45.384;20.390;2024-01-15T00:48:32;102.80;6476.80
55365;DHT22;41245;45.384;20.390;2024-01-15T00:50:57;102.80;6476.80
55365;DHT22;41245;45.384;20.390;2024-01-15T00:53:25;102.60;6476.80
55365;DHT22;41245;45.384;20.390;2024-01-15T00:55:51;102.50;6476.80
55365;DHT22;41245;45.384;20.390;2024-01-15T00:58:17;102.50;6476.80
55365;DHT22;41245;45.384;20.390;2024-01-15T01:00:42;102.40;6476.80
55365;DHT22;41245;45.384;20.390;2024-01-15T01:03:08;77.70;6476.80
55365;DHT22;41245;45.384;20.390;2024-01-15T01:05:34;77.20;6476.80
55365;DHT22;41245;45.384;20.390;2024-01-15T01:08:00;77.60;6476.80
55365;DHT22;41245;45.384;20.390;2024-01-15T01:10:27;77.60;6476.80
55365;DHT22;41245;45.384;20.390;2024-01-15T01:12:53;77.60;6476.80
55365;DHT22;41245;45.384;20.390;2024-01-15T01:15:18;77.60;6476.80
55365;DHT22;41245;45.384;20.390;2024-01-15T01:17:45;77.60;6476.80
55365;DHT22;41245;45.384;20.390;2024-01-15T01:20:11;77.50;6476.80
55365;DHT22;41245;45.384;20.390;2024-01-15T01:22:37;77.60;6476.80
55365;DHT22;41245;45.384;20.390;2024-01-15T01:25:03;77.60;6476.80
55365;DHT22;41245;45.384;20.390;2024-01-15T01:27:29;77.60;6476.80
55365;DHT22;41245;45.384;20.390;2024-01-15T01:29:54;77.70;6476.80
55365;DHT22;41245;45.384;20.390;2024-01-15T01:32:20;77.60;6476.80
55365;DHT22;41245;45.384;20.390;2024-01-15T01:34:47;77.70;6476.80
55365;DHT22;41245;45.384;20.390;2024-01-15T01:37:13;102.40;6476.80
55365;DHT22;41245;45.384;20.390;2024-01-15T01:39:40;102.40;6476.80
55365;DHT22;41245;45.384;20.390;2024-01-15T01:42:06;102.40;6476.80
55365;DHT22;41245;45.384;20.390;2024-01-15T01:44:32;102.40;6476.80
55365;DHT22;41245;45.384;20.390;2024-01-15T01:46:59;102.40;6476.80
55365;DHT22;41245;45.384;20.390;2024-01-15T01:49:25;77.70;6476.80
55365;DHT22;41245;45.384;20.390;2024-01-15T01:51:52;77.70;6476.80
55365;DHT22;41245;45.384;20.390;2024-01-15T01:54:19;77.70;6476.80
55365;DHT22;41245;45.384;20.390;2024-01-15T01:56:46;77.60;6476.80
55365;DHT22;41245;45.384;20.390;2024-01-15T01:59:12;77.60;6476.80
55365;DHT22;41245;45.384;20.390;2024-01-15T02:01:39;77.50;6476.80
55365;DHT22;41245;45.384;20.390;2024-01-15T02:04:05;77.50;6476.80
55365;DHT22;41245;45.384;20.390;2024-01-15T02:06:31;77.50;6476.80
55365;DHT22;41245;45.384;20.390;2024-01-15T02:08:57;77.50;6476.80
55365;DHT22;41245;45.384;20.390;2024-01-15T02:11:23;77.50;6476.80
55365;DHT22;41245;45.384;20.390;2024-01-15T02:13:49;77.60;6476.80
55365;DHT22;41245;45.384;20.390;2024-01-15T02:16:15;77.50;6476.80
55365;DHT22;41245;45.384;20.390;2024-01-15T02:18:42;77.60;6476.80
55365;DHT22;41245;45.384;20.390;2024-01-15T02:21:09;77.60;6476.80
55365;DHT22;41245;45.384;20.390;2024-01-15T02:23:34;77.70;6476.80
55365;DHT22;41245;45.384;20.390;2024-01-15T02:26:01;77.70;6476.80
55365;DHT22;41245;45.384;20.390;2024-01-15T02:28:26;77.70;6476.80
55365;DHT22;41245;45.384;20.390;2024-01-15T02:30:52;77.70;6476.80
55365;DHT22;41245;45.384;20.390;2024-01-15T02:33:18;102.40;6476.80
55365;DHT22;41245;45.384;20.390;2024-01-15T02:35:43;102.40;6476.80
55365;DHT22;41245;45.384;20.390;2024-01-15T02:38:12;102.40;6476.80
55365;DHT22;41245;45.384;20.390;2024-01-15T02:40:39;102.40;6476.80
55365;DHT22;41245;45.384;20.390;2024-01-15T02:43:04;102.40;6476.80
55365;DHT22;41245;45.384;20.390;2024-01-15T02:45:30;102.40;6476.80
55365;DHT22;41245;45.384;20.390;2024-01-15T02:47:56;77.70;6476.80
55365;DHT22;41245;45.384;20.390;2024-01-15T02:50:22;77.60;6476.80
55365;DHT22;41245;45.384;20.390;2024-01-15T02:52:47;77.60;6476.80
55365;DHT22;41245;45.384;20.390;2024-01-15T02:55:13;77.60;6476.80
55365;DHT22;41245;45.384;20.390;2024-01-15T02:57:39;77.50;6476.80
55365;DHT22;41245;45.384;20.390;2024-01-15T03:00:05;77.40;6476.80
55365;DHT22;41245;45.384;20.390;2024-01-15T03:02:31;77.40;6476.80
55365;DHT22;41245;45.384;20.390;2024-01-15T03:04:59;77.40;6476.80
55365;DHT22;41245;45.384;20.390;2024-01-15T03:07:25;77.40;6476.80
55365;DHT22;41245;45.384;20.390;2024-01-15T03:09:51;77.40;6476.80
55365;DHT22;41245;45.384;20.390;2024-01-15T03:12:17;77.40;6476.80
55365;DHT22;41245;45.384;20.390;2024-01-15T03:14:43;77.50;6476.80
55365;DHT22;41245;45.384;20.390;2024-01-15T03:17:09;77.50;6476.80
55365;DHT22;41245;45.384;20.390;2024-01-15T03:19:35;77.50;6476.80
55365;DHT22;41245;45.384;20.390;2024-01-15T03:22:01;77.40;6476.80
55365;DHT22;41245;45.384;20.390;2024-01-15T03:24:29;77.40;6476.80
55365;DHT22;41245;45.384;20.390;2024-01-15T03:26:55;77.60;6476.80
55365;DHT22;41245;45.384;20.390;2024-01-15T03:29:21;77.60;6476.80
55365;DHT22;41245;45.384;20.390;2024-01-15T03:31:47;77.60;6476.80
55365;DHT22;41245;45.384;20.390;2024-01-15T03:34:13;77.70;6476.80
55365;DHT22;41245;45.384;20.390;2024-01-15T03:36:38;102.40;6476.80
55365;DHT22;41245;45.384;20.390;2024-01-15T03:39:04;102.40;6476.80
55365;DHT22;41245;45.384;20.390;2024-01-15T03:41:30;102.50;6476.80
55365;DHT22;41245;45.384;20.390;2024-01-15T03:43:55;102.50;6476.80
55365;DHT22;41245;45.384;20.390;2024-01-15T03:46:21;102.50;6476.80
55365;DHT22;41245;45.384;20.390;2024-01-15T03:48:47;102.40;6476.80
55365;DHT22;41245;45.384;20.390;2024-01-15T03:51:12;102.40;6476.80
55365;DHT22;41245;45.384;20.390;2024-01-15T03:53:40;102.50;6476.80
55365;DHT22;41245;45.384;20.390;2024-01-15T03:56:06;102.40;6476.80
55365;DHT22;41245;45.384;20.390;2024-01-15T03:58:32;102.50;6476.80
55365;DHT22;41245;45.384;20.390;2024-01-15T04:00:57;102.50;6476.80
55365;DHT22;41245;45.384;20.390;2024-01-15T04:03:23;102.50;6476.80
55365;DHT22;41245;45.384;20.390;2024-01-15T04:05:49;102.60;6476.80
55365;DHT22;41245;45.384;20.390;2024-01-15T04:08:14;102.50;6476.80
55365;DHT22;41245;45.384;20.390;2024-01-15T04:10:40;102.60;6476.80
55365;DHT22;41245;45.384;20.390;2024-01-15T04:13:06;102.50;6476.80
55365;DHT22;41245;45.384;20.390;2024-01-15T04:15:31;102.50;6476.80
55365;DHT22;41245;45.384;20.390;2024-01-15T04:17:57;102.50;6476.80
55365;DHT22;41245;45.384;20.390;2024-01-15T04:20:23;102.50;6476.80
55365;DHT22;41245;45.384;20.390;2024-01-15T04:22:48;102.50;6476.80
55365;DHT22;41245;45.384;20.390;2024-01-15T04:25:14;102.50;6476.80
55365;DHT22;41245;45.384;20.390;2024-01-15T04:27:40;102.50;6476.80
55365;DHT22;41245;45.384;20.390;2024-01-15T04:30:06;102.50;6476.80
55365;DHT22;41245;45.384;20.390;2024-01-15T04:32:32;102.50;6476.80
55365;DHT22;41245;45.384;20.390;2024-01-15T04:34:57;102.40;6476.80
55365;DHT22;41245;45.384;20.390;2024-01-15T04:37:23;102.70;6476.80
55365;DHT22;41245;45.384;20.390;2024-01-15T04:39:49;102.40;6476.80
55365;DHT22;41245;45.384;20.390;2024-01-15T04:42:18;102.40;6476.80
55365;DHT22;41245;45.384;20.390;2024-01-15T04:44:44;102.40;6476.80
55365;DHT22;41245;45.384;20.390;2024-01-15T04:47:09;77.70;6476.80
55365;DHT22;41245;45.384;20.390;2024-01-15T04:49:35;102.40;6476.80
55365;DHT22;41245;45.384;20.390;2024-01-15T04:52:00;102.40;6476.80
55365;DHT22;41245;45.384;20.390;2024-01-15T04:54:26;102.40;6476.80
55365;DHT22;41245;45.384;20.390;2024-01-15T04:56:52;102.40;6476.80
55365;DHT22;41245;45.384;20.390;2024-01-15T04:59:17;102.40;6476.80
55365;DHT22;41245;45.384;20.390;2024-01-15T05:01:43;77.70;6476.80
55365;DHT22;41245;45.384;20.390;2024-01-15T05:04:09;77.70;6476.80
55365;DHT22;41245;45.384;20.390;2024-01-15T05:06:34;77.70;6476.80
55365;DHT22;41245;45.384;20.390;2024-01-15T05:09:00;77.60;6476.80
55365;DHT22;41245;45.384;20.390;2024-01-15T05:11:26;102.40;6476.80
55365;DHT22;41245;45.384;20.390;2024-01-15T05:13:52;102.40;6476.80
55365;DHT22;41245;45.384;20.390;2024-01-15T05:16:17;102.40;6476.80
55365;DHT22;41245;45.384;20.390;2024-01-15T05:18:43;102.40;6476.80
55365;DHT22;41245;45.384;20.390;2024-01-15T05:21:09;102.40;6476.80
55365;DHT22;41245;45.384;20.390;2024-01-15T05:23:34;102.40;6476.80
55365;DHT22;41245;45.384;20.390;2024-01-15T05:26:00;102.40;6476.80
55365;DHT22;41245;45.384;20.390;2024-01-15T05:28:26;102.40;6476.80
55365;DHT22;41245;45.384;20.390;2024-01-15T05:30:51;102.40;6476.80
55365;DHT22;41245;45.384;20.390;2024-01-15T05:33:18;102.60;6476.80
55365;DHT22;41245;45.384;20.390;2024-01-15T05:35:43;102.50;6476.80
55365;DHT22;41245;45.384;20.390;2024-01-15T05:38:09;102.50;6476.80
55365;DHT22;41245;45.384;20.390;2024-01-15T05:40:35;102.60;6476.80
55365;DHT22;41245;45.384;20.390;2024-01-15T05:43:00;102.60;6476.80
55365;DHT22;41245;45.384;20.390;2024-01-15T05:45:27;102.70;6476.80
55365;DHT22;41245;45.384;20.390;2024-01-15T05:47:52;102.70;6476.80
55365;DHT22;41245;45.384;20.390;2024-01-15T05:50:18;102.70;6476.80
55365;DHT22;41245;45.384;20.390;2024-01-15T05:52:44;102.70;6476.80
55365;DHT22;41245;45.384;20.390;2024-01-15T05:55:09;102.70;6476.80
55365;DHT22;41245;45.384;20.390;2024-01-15T05:57:36;102.70;6476.80
55365;DHT22;41245;45.384;20.390;2024-01-15T06:00:03;102.60;6476.80
55365;DHT22;41245;45.384;20.390;2024-01-15T06:02:29;102.60;6476.80
55365;DHT22;41245;45.384;20.390;2024-01-15T06:04:55;102.60;6476.80
55365;DHT22;41245;45.384;20.390;2024-01-15T06:07:21;102.60;6476.80
55365;DHT22;41245;45.384;20.390;2024-01-15T06:09:48;102.60;6476.80
55365;DHT22;41245;45.384;20.390;2024-01-15T06:12:13;102.60;6476.80
55365;DHT22;41245;45.384;20.390;2024-01-15T06:14:39;102.70;6476.80
55365;DHT22;41245;45.384;20.390;2024-01-15T06:17:06;102.70;6476.80
55365;DHT22;41245;45.384;20.390;2024-01-15T06:19:32;102.70;6476.80
55365;DHT22;41245;45.384;20.390;2024-01-15T06:21:58;102.70;6476.80
55365;DHT22;41245;45.384;20.390;2024-01-15T06:24:24;102.80;6476.80
55365;DHT22;41245;45.384;20.390;2024-01-15T06:26:49;102.80;6476.80
55365;DHT22;41245;45.384;20.390;2024-01-15T06:29:15;102.80;6476.80
55365;DHT22;41245;45.384;20.390;2024-01-15T06:31:41;102.70;6476.80
55365;DHT22;41245;45.384;20.390;2024-01-15T06:34:07;102.90;6476.80
55365;DHT22;41245;45.384;20.390;2024-01-15T06:36:32;102.90;6476.80
55365;DHT22;41245;45.384;20.390;2024-01-15T06:38:58;102.90;6476.80
55365;DHT22;41245;45.384;20.390;2024-01-15T06:41:24;102.90;6476.80
55365;DHT22;41245;45.384;20.390;2024-01-15T06:43:51;102.90;6476.80
55365;DHT22;41245;45.384;20.390;2024-01-15T06:46:23;102.90;6476.80
55365;DHT22;41245;45.384;20.390;2024-01-15T06:48:49;102.90;6476.80
55365;DHT22;41245;45.384;20.390;2024-01-15T06:51:16;102.90;6476.80
55365;DHT22;41245;45.384;20.390;2024-01-15T06:53:42;103.00;6476.80
55365;DHT22;41245;45.384;20.390;2024-01-15T06:56:08;103.10;6476.80
55365;DHT22;41245;45.384;20.390;2024-01-15T06:58:33;103.20;6476.80
55365;DHT22;41245;45.384;20.390;2024-01-15T07:00:59;103.20;6476.80
55365;DHT22;41245;45.384;20.390;2024-01-15T07:03:25;103.30;6476.80
55365;DHT22;41245;45.384;20.390;2024-01-15T07:05:51;103.30;6476.80
55365;DHT22;41245;45.384;20.390;2024-01-15T07:08:17;103.30;6476.80
55365;DHT22;41245;45.384;20.390;2024-01-15T07:10:42;128.00;6502.40
55365;DHT22;41245;45.384;20.390;2024-01-15T07:13:08;128.00;6502.40
55365;DHT22;41245;45.384;20.390;2024-01-15T07:15:34;128.10;6502.40
55365;DHT22;41245;45.384;20.390;2024-01-15T07:18:00;128.20;6502.40
55365;DHT22;41245;45.384;20.390;2024-01-15T07:20:26;128.20;6502.40
55365;DHT22;41245;45.384;20.390;2024-01-15T07:22:51;128.20;6502.40
55365;DHT22;41245;45.384;20.390;2024-01-15T07:25:17;128.20;6502.40
55365;DHT22;41245;45.384;20.390;2024-01-15T07:27:43;128.30;6502.40
55365;DHT22;41245;45.384;20.390;2024-01-15T07:30:11;128.20;6502.40
55365;DHT22;41245;45.384;20.390;2024-01-15T07:32:37;128.20;6502.40
55365;DHT22;41245;45.384;20.390;2024-01-15T07:35:04;128.40;6502.40
55365;DHT22;41245;45.384;20.390;2024-01-15T07:37:29;128.40;6502.40
55365;DHT22;41245;45.384;20.390;2024-01-15T07:39:55;128.30;6502.40
55365;DHT22;41245;45.384;20.390;2024-01-15T07:42:21;128.40;6502.40
55365;DHT22;41245;45.384;20.390;2024-01-15T07:44:46;128.30;6502.40
55365;DHT22;41245;45.384;20.390;2024-01-15T07:47:12;128.30;6502.40
55365;DHT22;41245;45.384;20.390;2024-01-15T07:49:38;128.30;6502.40
55365;DHT22;41245;45.384;20.390;2024-01-15T07:52:04;128.20;6502.40
55365;DHT22;41245;45.384;20.390;2024-01-15T07:54:31;128.30;6502.40
55365;DHT22;41245;45.384;20.390;2024-01-15T07:56:59;128.40;6502.40
55365;DHT22;41245;45.384;20.390;2024-01-15T07:59:26;128.50;6502.40
55365;DHT22;41245;45.384;20.390;2024-01-15T08:01:52;128.60;6502.40
55365;DHT22;41245;45.384;20.390;2024-01-15T08:04:18;128.60;6502.40
55365;DHT22;41245;45.384;20.390;2024-01-15T08:06:44;128.70;6502.40
55365;DHT22;41245;45.384;20.390;2024-01-15T08:09:10;128.80;6502.40
55365;DHT22;41245;45.384;20.390;2024-01-15T08:16:31;154.40;6502.40
55365;DHT22;41245;45.384;20.390;2024-01-15T08:18:57;154.30;6502.40
55365;DHT22;41245;45.384;20.390;2024-01-15T08:21:23;154.20;6502.40
55365;DHT22;41245;45.384;20.390;2024-01-15T08:23:49;154.10;6502.40
55365;DHT22;41245;45.384;20.390;2024-01-15T08:26:14;154.10;6502.40
55365;DHT22;41245;45.384;20.390;2024-01-15T08:28:40;154.10;6502.40
55365;DHT22;41245;45.384;20.390;2024-01-15T08:31:05;154.00;6502.40
55365;DHT22;41245;45.384;20.390;2024-01-15T08:33:31;153.90;6502.40
55365;DHT22;41245;45.384;20.390;2024-01-15T08:35:57;153.90;6502.40
55365;DHT22;41245;45.384;20.390;2024-01-15T08:38:23;153.70;6502.40
55365;DHT22;41245;45.384;20.390;2024-01-15T08:40:50;153.60;6502.40
55365;DHT22;41245;45.384;20.390;2024-01-15T08:43:16;153.80;6502.40
55365;DHT22;41245;45.384;20.390;2024-01-15T08:45:42;153.80;6502.40
55365;DHT22;41245;45.384;20.390;2024-01-15T08:48:07;153.90;6502.40
55365;DHT22;41245;45.384;20.390;2024-01-15T08:50:33;153.80;6502.40
55365;DHT22;41245;45.384;20.390;2024-01-15T08:52:59;153.80;6502.40
55365;DHT22;41245;45.384;20.390;2024-01-15T08:55:25;154.00;6502.40
55365;DHT22;41245;45.384;20.390;2024-01-15T08:57:50;154.20;6502.40
55365;DHT22;41245;45.384;20.390;2024-01-15T09:00:17;154.30;6502.40
55365;DHT22;41245;45.384;20.390;2024-01-15T09:02:43;154.40;6502.40
55365;DHT22;41245;45.384;20.390;2024-01-15T09:05:09;154.20;6502.40
55365;DHT22;41245;45.384;20.390;2024-01-15T09:07:35;154.20;6502.40
55365;DHT22;41245;45.384;20.390;2024-01-15T09:10:00;154.30;6502.40
55365;DHT22;41245;45.384;20.390;2024-01-15T09:12:27;154.30;6502.40
55365;DHT22;41245;45.384;20.390;2024-01-15T09:14:53;154.30;6502.40
55365;DHT22;41245;45.384;20.390;2024-01-15T09:17:20;154.30;6502.40
55365;DHT22;41245;45.384;20.390;2024-01-15T09:19:47;179.20;6502.40
55365;DHT22;41245;45.384;20.390;2024-01-15T09:22:13;179.20;6502.40
55365;DHT22;41245;45.384;20.390;2024-01-15T09:24:43;179.30;6502.40
55365;DHT22;41245;45.384;20.390;2024-01-15T10:16:10;205.30;6502.40
55365;DHT22;41245;45.384;20.390;2024-01-15T10:18:36;205.20;6502.40
55365;DHT22;41245;45.384;20.390;2024-01-15T10:21:06;205.30;6502.40
55365;DHT22;41245;45.384;20.390;2024-01-15T10:23:32;205.40;6502.40
55365;DHT22;41245;45.384;20.390;2024-01-15T10:25:58;205.20;6502.40
55365;DHT22;41245;45.384;20.390;2024-01-15T10:28:26;205.30;6502.40
55365;DHT22;41245;45.384;20.390;2024-01-15T10:30:55;205.10;6502.40
55365;DHT22;41245;45.384;20.390;2024-01-15T10:33:23;205.00;128.00
55365;DHT22;41245;45.384;20.390;2024-01-15T10:35:56;205.10;6502.40
55365;DHT22;41245;45.384;20.390;2024-01-15T10:38:22;205.10;6502.40
55365;DHT22;41245;45.384;20.390;2024-01-15T10:40:51;205.20;6502.40
55365;DHT22;41245;45.384;20.390;2024-01-15T10:43:17;205.10;6502.40
55365;DHT22;41245;45.384;20.390;2024-01-15T10:45:50;205.30;6502.40
55365;DHT22;41245;45.384;20.390;2024-01-15T10:48:18;205.30;6502.40
55365;DHT22;41245;45.384;20.390;2024-01-15T10:50:47;205.10;6502.40
55365;DHT22;41245;45.384;20.390;2024-01-15T10:53:16;205.20;6502.40
55365;DHT22;41245;45.384;20.390;2024-01-15T10:55:42;205.10;6502.40
55365;DHT22;41245;45.384;20.390;2024-01-15T10:58:09;205.20;6502.40
55365;DHT22;41245;45.384;20.390;2024-01-15T11:00:38;205.20;128.00
55365;DHT22;41245;45.384;20.390;2024-01-15T11:03:05;205.10;6502.40
55365;DHT22;41245;45.384;20.390;2024-01-15T11:08:07;205.10;6502.40
55365;DHT22;41245;45.384;20.390;2024-01-15T11:10:42;205.20;128.00
55365;DHT22;41245;45.384;20.390;2024-01-15T11:13:22;205.10;128.00
55365;DHT22;41245;45.384;20.390;2024-01-15T11:18:27;205.10;6502.40
55365;DHT22;41245;45.384;20.390;2024-01-15T11:21:26;205.10;6502.40
55365;DHT22;41245;45.384;20.390;2024-01-15T11:23:57;205.20;6502.40
55365;DHT22;41245;45.384;20.390;2024-01-15T11:26:45;205.20;6502.40
55365;DHT22;41245;45.384;20.390;2024-01-15T11:31:56;205.10;6502.40
55365;DHT22;41245;45.384;20.390;2024-01-15T11:37:20;205.00;6502.40
55365;DHT22;41245;45.384;20.390;2024-01-15T11:39:47;205.00;6502.40
55365;DHT22;41245;45.384;20.390;2024-01-15T11:42:13;205.10;6502.40
55365;DHT22;41245;45.384;20.390;2024-01-15T11:47:08;205.30;6502.40
55365;DHT22;41245;45.384;20.390;2024-01-15T11:52:04;205.20;6502.40
55365;DHT22;41245;45.384;20.390;2024-01-15T11:54:33;205.00;6502.40
55365;DHT22;41245;45.384;20.390;2024-01-15T11:57:07;204.90;6502.40
55365;DHT22;41245;45.384;20.390;2024-01-15T11:59:35;205.00;6502.40
55365;DHT22;41245;45.384;20.390;2024-01-15T12:02:02;204.90;6502.40
55365;DHT22;41245;45.384;20.390;2024-01-15T12:04:28;204.90;6502.40
55365;DHT22;41245;45.384;20.390;2024-01-15T12:06:54;204.90;6502.40
55365;DHT22;41245;45.384;20.390;2024-01-15T12:09:19;204.90;6502.40
55365;DHT22;41245;45.384;20.390;2024-01-15T12:12:03;204.90;6502.40
55365;DHT22;41245;45.384;20.390;2024-01-15T12:14:32;204.90;6502.40
55365;DHT22;41245;45.384;20.390;2024-01-15T12:16:57;204.90;6502.40
55365;DHT22;41245;45.384;20.390;2024-01-15T12:19:23;204.80;6502.40
55365;DHT22;41245;45.384;20.390;2024-01-15T12:21:51;179.60;6502.40
55365;DHT22;41245;45.384;20.390;2024-01-15T12:24:17;154.30;6502.40
55365;DHT22;41245;45.384;20.390;2024-01-15T12:26:44;154.00;6502.40
55365;DHT22;41245;45.384;20.390;2024-01-15T12:31:37;128.70;6502.40
55365;DHT22;41245;45.384;20.390;2024-01-15T12:34:03;128.70;6502.40
55365;DHT22;41245;45.384;20.390;2024-01-15T14:40:58;102.50;6476.80
55365;DHT22;41245;45.384;20.390;2024-01-15T15:46:56;77.20;1894.40
55365;DHT22;41245;45.384;20.390;2024-01-15T15:49:22;77.10;1843.20
55365;DHT22;41245;45.384;20.390;2024-01-15T15:51:47;76.90;1868.80
55365;DHT22;41245;45.384;20.390;2024-01-15T16:25:58;77.20;1894.40
55365;DHT22;41245;45.384;20.390;2024-01-15T16:57:38;52.00;1894.40
55365;DHT22;41245;45.384;20.390;2024-01-15T17:00:06;51.80;1894.40
55365;DHT22;41245;45.384;20.390;2024-01-15T17:02:32;51.50;1894.40
55365;DHT22;41245;45.384;20.390;2024-01-15T17:04:58;51.90;1894.40
55365;DHT22;41245;45.384;20.390;2024-01-15T17:07:24;51.80;1894.40
55365;DHT22;41245;45.384;20.390;2024-01-15T17:09:50;51.50;1894.40
55365;DHT22;41245;45.384;20.390;2024-01-15T17:12:15;51.40;1894.40
55365;DHT22;41245;45.384;20.390;2024-01-15T17:14:41;51.60;1894.40
55365;DHT22;41245;45.384;20.390;2024-01-15T17:17:07;51.50;1894.40
55365;DHT22;41245;45.384;20.390;2024-01-15T17:19:32;51.30;1894.40
55365;DHT22;41245;45.384;20.390;2024-01-15T17:21:58;51.30;1894.40
55365;DHT22;41245;45.384;20.390;2024-01-15T17:24:25;51.40;1894.40
55365;DHT22;41245;45.384;20.390;2024-01-15T17:26:50;51.20;1894.40
55365;DHT22;41245;45.384;20.390;2024-01-15T17:29:16;51.40;1894.40
55365;DHT22;41245;45.384;20.390;2024-01-15T17:31:42;51.50;1894.40
55365;DHT22;41245;45.384;20.390;2024-01-15T17:34:08;51.50;1894.40
55365;DHT22;41245;45.384;20.390;2024-01-15T17:36:35;51.50;1894.40
55365;DHT22;41245;45.384;20.390;2024-01-15T17:39:01;51.60;1894.40
55365;DHT22;41245;45.384;20.390;2024-01-15T17:41:26;51.40;1894.40
55365;DHT22;41245;45.384;20.390;2024-01-15T17:43:52;51.50;1894.40
55365;DHT22;41245;45.384;20.390;2024-01-15T17:46:18;51.50;1894.40
55365;DHT22;41245;45.384;20.390;2024-01-15T17:48:45;51.40;1894.40
55365;DHT22;41245;45.384;20.390;2024-01-15T17:51:16;51.40;1894.40
55365;DHT22;41245;45.384;20.390;2024-01-15T17:53:43;51.60;1894.40
55365;DHT22;41245;45.384;20.390;2024-01-15T17:56:09;51.60;1894.40
55365;DHT22;41245;45.384;20.390;2024-01-15T17:58:34;51.60;1894.40
55365;DHT22;41245;45.384;20.390;2024-01-15T18:01:00;51.30;1894.40
55365;DHT22;41245;45.384;20.390;2024-01-15T18:03:26;51.40;1894.40
55365;DHT22;41245;45.384;20.390;2024-01-15T18:05:52;26.20;1868.80
55365;DHT22;41245;45.384;20.390;2024-01-15T18:08:18;26.50;1868.80
55365;DHT22;41245;45.384;20.390;2024-01-15T18:10:45;26.40;1868.80
55365;DHT22;41245;45.384;20.390;2024-01-15T18:13:10;26.40;1868.80
55365;DHT22;41245;45.384;20.390;2024-01-15T18:15:36;26.10;1868.80
55365;DHT22;41245;45.384;20.390;2024-01-15T18:18:02;26.30;1868.80
55365;DHT22;41245;45.384;20.390;2024-01-15T18:20:28;26.20;1868.80
55365;DHT22;41245;45.384;20.390;2024-01-15T18:22:53;26.40;1868.80
55365;DHT22;41245;45.384;20.390;2024-01-15T18:25:20;26.30;1868.80
55365;DHT22;41245;45.384;20.390;2024-01-15T18:27:46;26.40;1868.80
55365;DHT22;41245;45.384;20.390;2024-01-15T18:30:12;26.30;1868.80
55365;DHT22;41245;45.384;20.390;2024-01-15T18:32:39;26.00;1868.80
55365;DHT22;41245;45.384;20.390;2024-01-15T18:35:06;26.10;1868.80
55365;DHT22;41245;45.384;20.390;2024-01-15T18:37:32;26.00;1868.80
55365;DHT22;41245;45.384;20.390;2024-01-15T18:39:58;26.10;1868.80
55365;DHT22;41245;45.384;20.390;2024-01-15T18:42:24;26.30;1868.80
55365;DHT22;41245;45.384;20.390;2024-01-15T18:44:49;26.30;1868.80
55365;DHT22;41245;45.384;20.390;2024-01-15T18:47:15;26.40;1868.80
55365;DHT22;41245;45.384;20.390;2024-01-15T18:49:42;26.50;1868.80
55365;DHT22;41245;45.384;20.390;2024-01-15T18:52:09;26.30;1868.80
55365;DHT22;41245;45.384;20.390;2024-01-15T18:54:36;26.30;1868.80
55365;DHT22;41245;45.384;20.390;2024-01-15T18:57:03;26.30;1868.80
55365;DHT22;41245;45.384;20.390;2024-01-15T18:59:29;26.30;1868.80
55365;DHT22;41245;45.384;20.390;2024-01-15T19:01:56;26.50;1868.80
55365;DHT22;41245;45.384;20.390;2024-01-15T19:04:22;51.20;1894.40
55365;DHT22;41245;45.384;20.390;2024-01-15T19:06:48;51.20;1894.40
55365;DHT22;41245;45.384;20.390;2024-01-15T19:09:14;26.50;1868.80
55365;DHT22;41245;45.384;20.390;2024-01-15T19:11:40;26.50;1868.80
55365;DHT22;41245;45.384;20.390;2024-01-15T19:14:06;51.20;1894.40
55365;DHT22;41245;45.384;20.390;2024-01-15T19:16:31;26.40;1868.80
55365;DHT22;41245;45.384;20.390;2024-01-15T19:18:57;51.20;1894.40
55365;DHT22;41245;45.384;20.390;2024-01-15T19:21:23;26.50;1868.80
55365;DHT22;41245;45.384;20.390;2024-01-15T19:23:49;26.50;1868.80
55365;DHT22;41245;45.384;20.390;2024-01-15T19:26:21;51.20;1894.40
55365;DHT22;41245;45.384;20.390;2024-01-15T19:28:47;26.50;1868.80
55365;DHT22;41245;45.384;20.390;2024-01-15T19:31:13;51.20;1894.40
55365;DHT22;41245;45.384;20.390;2024-01-15T19:33:39;51.30;1894.40
55365;DHT22;41245;45.384;20.390;2024-01-15T19:36:05;51.20;1894.40
55365;DHT22;41245;45.384;20.390;2024-01-15T19:38:31;51.30;1894.40
55365;DHT22;41245;45.384;20.390;2024-01-15T19:40:57;26.50;1868.80
55365;DHT22;41245;45.384;20.390;2024-01-15T19:43:23;51.20;1894.40
55365;DHT22;41245;45.384;20.390;2024-01-15T19:45:49;51.20;1894.40
55365;DHT22;41245;45.384;20.390;2024-01-15T19:48:14;51.50;1894.40
55365;DHT22;41245;45.384;20.390;2024-01-15T19:50:43;51.50;1894.40
55365;DHT22;41245;45.384;20.390;2024-01-15T19:53:09;51.60;1894.40
55365;DHT22;41245;45.384;20.390;2024-01-15T19:55:35;51.30;1894.40
55365;DHT22;41245;45.384;20.390;2024-01-15T19:58:02;51.50;1894.40